Daio — JG5587 — position and weather

sailwx.info

Track history (hours):
 
Tides and Currents Weather Stations Pressure Air Temp Water Temp Dewpoint Dewpoint Depression Visibility Wind Speed Wind Dir Waves Ship Positions

Daio

Last reported at 2015-Sep-04 07:32 UTC. Time now 2015-Sep-04 07:53 UTC.
Position N 35°28' E 139°58'.

Length 36 m; draft 3.4 m.

Type: Tug. MMSI: 431003092.

Date/timePositionNaut miles runAvg speedWind from/ knotsBaromVisibWave heightAir tempDewpointWater temp
2015-Sep-04 07:32N 35°28' E 139°58'0 0.0
2015-Sep-04 06:33N 35°28' E 139°58'2 1.8
2015-Sep-04 05:33N 35°30' E 139°57'0 0.3
2015-Sep-04 04:33N 35°30' E 139°56'0 0.0
2015-Sep-04 03:33N 35°30' E 139°56'0 0.0
2015-Sep-04 02:33N 35°30' E 139°56'0 0.0
2015-Sep-04 01:33N 35°30' E 139°56'4 3.5
2015-Sep-04 00:33N 35°29' E 140°00'3 2.5
2015-Sep-03 23:33N 35°31' E 140°01'6 5.7
2015-Sep-03 22:33N 35°35' E 140°06'2 1.6
2015-Sep-03 21:33N 35°35' E 140°04'0 0.0
2015-Sep-03 20:33N 35°35' E 140°04'3 2.8
2015-Sep-03 19:33N 35°36' E 140°07'0 0.0
2015-Sep-03 18:33N 35°36' E 140°07'0 0.0
2015-Sep-03 17:33N 35°36' E 140°07'0 0.0
2015-Sep-03 16:34N 35°36' E 140°07'0 0.0
2015-Sep-03 15:33N 35°36' E 140°07'0 0.0
2015-Sep-03 14:34N 35°36' E 140°07'0 0.0
2015-Sep-03 13:33N 35°36' E 140°07'0 0.0
2015-Sep-03 12:33N 35°36' E 140°07'0 0.0
2015-Sep-03 11:34N 35°36' E 140°07'0 0.0
2015-Sep-03 10:33N 35°36' E 140°07'0 0.0
2015-Sep-03 09:33N 35°36' E 140°07'0 0.0
2015-Sep-03 08:33N 35°36' E 140°07'0 0.0
2015-Sep-03 07:33N 35°36' E 140°07'0 0.0
2015-Sep-03 06:32N 35°36' E 140°07'0 0.0
2015-Sep-03 05:33N 35°36' E 140°07'0 0.0
2015-Sep-03 04:33N 35°36' E 140°07'0 0.0
2015-Sep-03 03:33N 35°36' E 140°07'0 0.0
2015-Sep-03 02:33N 35°36' E 140°07'6 6.3
2015-Sep-03 01:33N 35°32' E 140°01'2 1.8
2015-Sep-03 00:33N 35°31' E 139°59'3 3.5
2015-Sep-02 23:33N 35°34' E 139°56'9 9.0
2015-Sep-02 22:33N 35°36' E 140°07'0 0.3
2015-Sep-02 21:33N 35°36' E 140°07'0 0.0
2015-Sep-02 20:33N 35°36' E 140°07'0 0.0
2015-Sep-02 19:33N 35°36' E 140°07'0 0.0
2015-Sep-02 18:33N 35°36' E 140°07'0 0.0
2015-Sep-02 17:33N 35°36' E 140°07'0 0.0
2015-Sep-02 16:33N 35°36' E 140°07'0 0.0
2015-Sep-02 15:33N 35°36' E 140°07'0 0.0
2015-Sep-02 14:33N 35°36' E 140°07'0 0.0
2015-Sep-02 13:33N 35°36' E 140°07'0 0.0
2015-Sep-02 12:33N 35°36' E 140°07'0 0.0
2015-Sep-02 11:33N 35°36' E 140°07'0 0.0
2015-Sep-02 10:33N 35°36' E 140°07'0 0.0
2015-Sep-02 09:33N 35°36' E 140°07'0 0.0
2015-Sep-02 08:33N 35°36' E 140°07'0 0.0
2015-Sep-02 07:33N 35°36' E 140°07'0 0.0
2015-Sep-02 06:33N 35°36' E 140°07'1 0.8
2015-Sep-02 05:33N 35°35' E 140°07'1 0.2
2015-Sep-02 02:33N 35°36' E 140°07'0 0.0
2015-Sep-02 01:33N 35°36' E 140°07'0 0.0
2015-Sep-02 00:33N 35°36' E 140°07'0 0.0
2015-Sep-01 23:33N 35°36' E 140°07'0 0.0
2015-Sep-01 22:33N 35°36' E 140°07'0 0.0
2015-Sep-01 21:33N 35°36' E 140°07'0 0.0
2015-Sep-01 20:33N 35°36' E 140°07'0 0.0
2015-Sep-01 19:33N 35°36' E 140°07'0 0.0
2015-Sep-01 18:33N 35°36' E 140°07'0 0.0
2015-Sep-01 17:33N 35°36' E 140°07'0 0.0
2015-Sep-01 16:33N 35°36' E 140°07'0 0.0
2015-Sep-01 15:33N 35°36' E 140°07'0 0.0
2015-Sep-01 14:33N 35°36' E 140°07'0 0.0
2015-Sep-01 13:33N 35°36' E 140°07'0 0.0
2015-Sep-01 12:33N 35°36' E 140°07'0 0.0
2015-Sep-01 11:33N 35°36' E 140°07'0 0.0
2015-Sep-01 10:33N 35°36' E 140°07'0 0.0
2015-Sep-01 09:33N 35°36' E 140°07'0 0.0
2015-Sep-01 08:33N 35°36' E 140°07'0 0.0
2015-Sep-01 07:33N 35°36' E 140°07'0 0.0
2015-Sep-01 06:33N 35°36' E 140°07'0 0.0
2015-Sep-01 05:34N 35°36' E 140°07'6 6.5
2015-Sep-01 04:33N 35°33' E 139°60'4 3.6
2015-Sep-01 03:34N 35°31' E 139°56'0 0.1
2015-Sep-01 02:33N 35°31' E 139°56'1 0.8
2015-Sep-01 01:33N 35°31' E 139°56'1 0.8
2015-Sep-01 00:34N 35°32' E 139°57'1 1.4
2015-Aug-31 23:33N 35°31' E 139°56'1010.1
2015-Aug-31 22:33N 35°36' E 140°07'1 0.0
2015-Aug-31 05:17N 35°36' E 140°06'810.5
2015-Aug-31 04:33N 35°31' E 139°60'3 2.6
2015-Aug-31 03:33N 35°28' E 139°58'1 0.5
2015-Aug-31 02:33N 35°29' E 139°59'0 0.3
2015-Aug-31 01:33N 35°28' E 139°58'1 0.5
2015-Aug-31 00:33N 35°29' E 139°58'0 0.2
2015-Aug-30 23:34N 35°29' E 139°58'8 7.7
2015-Aug-30 22:33N 35°35' E 140°04'2 0.1
2015-Aug-30 06:33N 35°33' E 140°03'6 6.4
2015-Aug-30 05:33N 35°28' E 139°58'1 1.2
2015-Aug-30 04:34N 35°29' E 139°57'0 0.0
2015-Aug-30 03:34N 35°29' E 139°57'2 2.1
2015-Aug-30 02:34N 35°31' E 139°56'0 0.1
2015-Aug-30 01:33N 35°31' E 139°56'2 1.9
2015-Aug-30 00:33N 35°29' E 139°54'6 5.8
2015-Aug-29 23:34N 35°30' E 140°01'7 7.5
2015-Aug-29 22:34N 35°36' E 140°06'3 0.2
2015-Aug-29 07:33N 35°34' E 140°04'3 3.2
2015-Aug-29 06:33N 35°31' E 140°02'1 1.2
2015-Aug-29 05:33N 35°31' E 140°01'0 0.3
2015-Aug-29 04:33N 35°31' E 140°01'0 0.0
2015-Aug-29 03:32N 35°31' E 140°01'3 3.2
2015-Aug-29 02:33N 35°28' E 139°58'1 1.4
2015-Aug-29 01:33N 35°30' E 139°57'0 0.4
2015-Aug-29 00:33N 35°29' E 139°58'6 5.5
2015-Aug-28 23:33N 35°33' E 140°03'4 3.5
2015-Aug-28 22:33N 35°36' E 140°05'1 1.4
2015-Aug-28 21:33N 35°35' E 140°04'0 0.0
2015-Aug-28 20:33N 35°35' E 140°04'2 2.2
2015-Aug-28 19:33N 35°36' E 140°06'1 0.1
2015-Aug-28 08:22N 35°36' E 140°06'1 1.4
2015-Aug-28 07:33N 35°35' E 140°04'5 4.6
2015-Aug-28 06:33N 35°33' E 139°60'3 3.3
2015-Aug-28 05:34N 35°31' E 139°56'1 0.5
2015-Aug-28 04:34N 35°30' E 139°56'0 0.2
2015-Aug-28 03:33N 35°31' E 139°56'3 2.5
2015-Aug-28 02:33N 35°29' E 139°53'1 1.1
2015-Aug-28 01:33N 35°29' E 139°54'4 3.8
2015-Aug-28 00:33N 35°29' E 139°59'1 1.5
2015-Aug-27 23:34N 35°29' E 140°01'2 1.7
2015-Aug-27 22:33N 35°30' E 139°59'0 0.3
2015-Aug-27 21:33N 35°30' E 139°59'7 6.8
2015-Aug-27 20:33N 35°35' E 140°04'2 0.2
2015-Aug-27 07:07N 35°36' E 140°06'0 0.0
2015-Aug-27 06:33N 35°36' E 140°06'0 0.0
2015-Aug-27 05:33N 35°36' E 140°06'0 0.0
2015-Aug-27 04:33N 35°36' E 140°06'0 0.0
2015-Aug-27 03:33N 35°36' E 140°06'0 0.0
2015-Aug-27 02:33N 35°36' E 140°06'8 7.6
2015-Aug-27 01:34N 35°30' E 140°01'1 1.0
2015-Aug-27 00:33N 35°29' E 140°00'1 1.0
2015-Aug-26 23:33N 35°30' E 139°59'8 8.4
2015-Aug-26 22:33N 35°36' E 140°06'2 0.1
2015-Aug-26 06:32N 35°35' E 140°04'8 8.0
2015-Aug-26 05:33N 35°28' E 139°58'0 0.0
2015-Aug-26 04:34N 35°28' E 139°58'0 0.3
2015-Aug-26 03:33N 35°29' E 139°58'2 1.8
2015-Aug-26 02:33N 35°30' E 139°56'0 0.0
2015-Aug-26 01:34N 35°30' E 139°56'0 0.0
2015-Aug-26 00:34N 35°30' E 139°56'9 9.4
2015-Aug-25 23:34N 35°35' E 140°06'1 1.1
2015-Aug-25 22:34N 35°36' E 140°07'0 0.0
2015-Aug-25 21:34N 35°36' E 140°07'1 1.0
2015-Aug-25 20:33N 35°35' E 140°06'1 0.1
2015-Aug-25 07:33N 35°35' E 140°05'  
Track history (hours):
 
Tides and Currents Weather Stations Pressure Air Temp Water Temp Dewpoint Dewpoint Depression Visibility Wind Speed Wind Dir Waves Ship Positions

Daio

Last reported at 2015-Sep-04 07:32 UTC. Time now 2015-Sep-04 07:53 UTC.
Position N 35°28' E 139°58'.

Length 36 m; draft 3.4 m.

Type: Tug. MMSI: 431003092.

Date/timePositionNaut miles runAvg speedWind from/ knotsBaromVisibWave heightAir tempDewpointWater temp
2015-Sep-04 07:32N 35°28' E 139°58'0 0.0
2015-Sep-04 06:33N 35°28' E 139°58'2 1.8
2015-Sep-04 05:33N 35°30' E 139°57'0 0.3
2015-Sep-04 04:33N 35°30' E 139°56'0 0.0
2015-Sep-04 03:33N 35°30' E 139°56'0 0.0
2015-Sep-04 02:33N 35°30' E 139°56'0 0.0
2015-Sep-04 01:33N 35°30' E 139°56'4 3.5
2015-Sep-04 00:33N 35°29' E 140°00'3 2.5
2015-Sep-03 23:33N 35°31' E 140°01'6 5.7
2015-Sep-03 22:33N 35°35' E 140°06'2 1.6
2015-Sep-03 21:33N 35°35' E 140°04'0 0.0
2015-Sep-03 20:33N 35°35' E 140°04'3 2.8
2015-Sep-03 19:33N 35°36' E 140°07'0 0.0
2015-Sep-03 18:33N 35°36' E 140°07'0 0.0
2015-Sep-03 17:33N 35°36' E 140°07'0 0.0
2015-Sep-03 16:34N 35°36' E 140°07'0 0.0
2015-Sep-03 15:33N 35°36' E 140°07'0 0.0
2015-Sep-03 14:34N 35°36' E 140°07'0 0.0
2015-Sep-03 13:33N 35°36' E 140°07'0 0.0
2015-Sep-03 12:33N 35°36' E 140°07'0 0.0
2015-Sep-03 11:34N 35°36' E 140°07'0 0.0
2015-Sep-03 10:33N 35°36' E 140°07'0 0.0
2015-Sep-03 09:33N 35°36' E 140°07'0 0.0
2015-Sep-03 08:33N 35°36' E 140°07'0 0.0
2015-Sep-03 07:33N 35°36' E 140°07'0 0.0
2015-Sep-03 06:32N 35°36' E 140°07'0 0.0
2015-Sep-03 05:33N 35°36' E 140°07'0 0.0
2015-Sep-03 04:33N 35°36' E 140°07'0 0.0
2015-Sep-03 03:33N 35°36' E 140°07'0 0.0
2015-Sep-03 02:33N 35°36' E 140°07'6 6.3
2015-Sep-03 01:33N 35°32' E 140°01'2 1.8
2015-Sep-03 00:33N 35°31' E 139°59'3 3.5
2015-Sep-02 23:33N 35°34' E 139°56'9 9.0
2015-Sep-02 22:33N 35°36' E 140°07'0 0.3
2015-Sep-02 21:33N 35°36' E 140°07'0 0.0
2015-Sep-02 20:33N 35°36' E 140°07'0 0.0
2015-Sep-02 19:33N 35°36' E 140°07'0 0.0
2015-Sep-02 18:33N 35°36' E 140°07'0 0.0
2015-Sep-02 17:33N 35°36' E 140°07'0 0.0
2015-Sep-02 16:33N 35°36' E 140°07'0 0.0
2015-Sep-02 15:33N 35°36' E 140°07'0 0.0
2015-Sep-02 14:33N 35°36' E 140°07'0 0.0
2015-Sep-02 13:33N 35°36' E 140°07'0 0.0
2015-Sep-02 12:33N 35°36' E 140°07'0 0.0
2015-Sep-02 11:33N 35°36' E 140°07'0 0.0
2015-Sep-02 10:33N 35°36' E 140°07'0 0.0
2015-Sep-02 09:33N 35°36' E 140°07'0 0.0
2015-Sep-02 08:33N 35°36' E 140°07'0 0.0
2015-Sep-02 07:33N 35°36' E 140°07'0 0.0
2015-Sep-02 06:33N 35°36' E 140°07'1 0.8
2015-Sep-02 05:33N 35°35' E 140°07'1 0.2
2015-Sep-02 02:33N 35°36' E 140°07'0 0.0
2015-Sep-02 01:33N 35°36' E 140°07'0 0.0
2015-Sep-02 00:33N 35°36' E 140°07'0 0.0
2015-Sep-01 23:33N 35°36' E 140°07'0 0.0
2015-Sep-01 22:33N 35°36' E 140°07'0 0.0
2015-Sep-01 21:33N 35°36' E 140°07'0 0.0
2015-Sep-01 20:33N 35°36' E 140°07'0 0.0
2015-Sep-01 19:33N 35°36' E 140°07'0 0.0
2015-Sep-01 18:33N 35°36' E 140°07'0 0.0
2015-Sep-01 17:33N 35°36' E 140°07'0 0.0
2015-Sep-01 16:33N 35°36' E 140°07'0 0.0
2015-Sep-01 15:33N 35°36' E 140°07'0 0.0
2015-Sep-01 14:33N 35°36' E 140°07'0 0.0
2015-Sep-01 13:33N 35°36' E 140°07'0 0.0
2015-Sep-01 12:33N 35°36' E 140°07'0 0.0
2015-Sep-01 11:33N 35°36' E 140°07'0 0.0
2015-Sep-01 10:33N 35°36' E 140°07'0 0.0
2015-Sep-01 09:33N 35°36' E 140°07'0 0.0
2015-Sep-01 08:33N 35°36' E 140°07'0 0.0
2015-Sep-01 07:33N 35°36' E 140°07'0 0.0
2015-Sep-01 06:33N 35°36' E 140°07'0 0.0
2015-Sep-01 05:34N 35°36' E 140°07'6 6.5
2015-Sep-01 04:33N 35°33' E 139°60'4 3.6
2015-Sep-01 03:34N 35°31' E 139°56'0 0.1
2015-Sep-01 02:33N 35°31' E 139°56'1 0.8
2015-Sep-01 01:33N 35°31' E 139°56'1 0.8
2015-Sep-01 00:34N 35°32' E 139°57'1 1.4
2015-Aug-31 23:33N 35°31' E 139°56'1010.1
2015-Aug-31 22:33N 35°36' E 140°07'1 0.0
2015-Aug-31 05:17N 35°36' E 140°06'810.5
2015-Aug-31 04:33N 35°31' E 139°60'3 2.6
2015-Aug-31 03:33N 35°28' E 139°58'1 0.5
2015-Aug-31 02:33N 35°29' E 139°59'0 0.3
2015-Aug-31 01:33N 35°28' E 139°58'1 0.5
2015-Aug-31 00:33N 35°29' E 139°58'0 0.2
2015-Aug-30 23:34N 35°29' E 139°58'8 7.7
2015-Aug-30 22:33N 35°35' E 140°04'2 0.1
2015-Aug-30 06:33N 35°33' E 140°03'6 6.4
2015-Aug-30 05:33N 35°28' E 139°58'1 1.2
2015-Aug-30 04:34N 35°29' E 139°57'0 0.0
2015-Aug-30 03:34N 35°29' E 139°57'2 2.1
2015-Aug-30 02:34N 35°31' E 139°56'0 0.1
2015-Aug-30 01:33N 35°31' E 139°56'2 1.9
2015-Aug-30 00:33N 35°29' E 139°54'6 5.8
2015-Aug-29 23:34N 35°30' E 140°01'7 7.5
2015-Aug-29 22:34N 35°36' E 140°06'3 0.2
2015-Aug-29 07:33N 35°34' E 140°04'3 3.2
2015-Aug-29 06:33N 35°31' E 140°02'1 1.2
2015-Aug-29 05:33N 35°31' E 140°01'0 0.3
2015-Aug-29 04:33N 35°31' E 140°01'0 0.0
2015-Aug-29 03:32N 35°31' E 140°01'3 3.2
2015-Aug-29 02:33N 35°28' E 139°58'1 1.4
2015-Aug-29 01:33N 35°30' E 139°57'0 0.4
2015-Aug-29 00:33N 35°29' E 139°58'6 5.5
2015-Aug-28 23:33N 35°33' E 140°03'4 3.5
2015-Aug-28 22:33N 35°36' E 140°05'1 1.4
2015-Aug-28 21:33N 35°35' E 140°04'0 0.0
2015-Aug-28 20:33N 35°35' E 140°04'2 2.2
2015-Aug-28 19:33N 35°36' E 140°06'1 0.1
2015-Aug-28 08:22N 35°36' E 140°06'1 1.4
2015-Aug-28 07:33N 35°35' E 140°04'5 4.6
2015-Aug-28 06:33N 35°33' E 139°60'3 3.3
2015-Aug-28 05:34N 35°31' E 139°56'1 0.5
2015-Aug-28 04:34N 35°30' E 139°56'0 0.2
2015-Aug-28 03:33N 35°31' E 139°56'3 2.5
2015-Aug-28 02:33N 35°29' E 139°53'1 1.1
2015-Aug-28 01:33N 35°29' E 139°54'4 3.8
2015-Aug-28 00:33N 35°29' E 139°59'1 1.5
2015-Aug-27 23:34N 35°29' E 140°01'2 1.7
2015-Aug-27 22:33N 35°30' E 139°59'0 0.3
2015-Aug-27 21:33N 35°30' E 139°59'7 6.8
2015-Aug-27 20:33N 35°35' E 140°04'2 0.2
2015-Aug-27 07:07N 35°36' E 140°06'0 0.0
2015-Aug-27 06:33N 35°36' E 140°06'0 0.0
2015-Aug-27 05:33N 35°36' E 140°06'0 0.0
2015-Aug-27 04:33N 35°36' E 140°06'0 0.0
2015-Aug-27 03:33N 35°36' E 140°06'0 0.0
2015-Aug-27 02:33N 35°36' E 140°06'8 7.6
2015-Aug-27 01:34N 35°30' E 140°01'1 1.0
2015-Aug-27 00:33N 35°29' E 140°00'1 1.0
2015-Aug-26 23:33N 35°30' E 139°59'8 8.4
2015-Aug-26 22:33N 35°36' E 140°06'2 0.1
2015-Aug-26 06:32N 35°35' E 140°04'8 8.0
2015-Aug-26 05:33N 35°28' E 139°58'0 0.0
2015-Aug-26 04:34N 35°28' E 139°58'0 0.3
2015-Aug-26 03:33N 35°29' E 139°58'2 1.8
2015-Aug-26 02:33N 35°30' E 139°56'0 0.0
2015-Aug-26 01:34N 35°30' E 139°56'0 0.0
2015-Aug-26 00:34N 35°30' E 139°56'9 9.4
2015-Aug-25 23:34N 35°35' E 140°06'1 1.1
2015-Aug-25 22:34N 35°36' E 140°07'0 0.0
2015-Aug-25 21:34N 35°36' E 140°07'1 1.0
2015-Aug-25 20:33N 35°35' E 140°06'1 0.1
2015-Aug-25 07:33N 35°35' E 140°05'  

Dump ship's entire track history